Kirkwood, CA (95646)

10:18 AM PDT on September 23, 2014 (GMT -0700)
North Upper Truckee | Change Station
CLOSE
Current Station
Personal Weather Station
Location: South Lake Tahoe, CA
Elevation: 6549 ft
Nearby Weather Stations
Active Advisory: Fire Weather Warning

Elev 6549 ft 38.86 °N, 120.04 °W | Updated 10 seconds ago

Clear
Clear
65.3 °F
Feels Like 65.3 °F
N
0.0
Wind Variable Wind from ENE
Gusts 5.0 mph

Today
High -- | Low -- °F
--% Chance of Precip.
Yesterday
High -- | Low -- °F
Precip. -- in
6:49 AM 6:55 PM
Waning Crescent, 0% visible
Pressure 30.06 in
Visibility 10.0 miles
Clouds Clear
Dew Point 33 °F
Humidity 30%
Rainfall 0.00 in
Snow Depth 0 in , 1 in , 0 in
UV 4 out of 12
Pollen 5.30 out of 12
Ozone Good
PM2.5 Hazardous
Flu Activity Not available.
METAR KTVL 231653Z AUTO 19007KT 10SM CLR 21/M01 A3022 RMK AO2 SLP178 T02061011

More Conditions Fewer Conditions

Pressure 30.06 in
Visibility 10.0 miles
Clouds Clear
Dew Point 33 °F
Humidity 30%
Rainfall 0.00 in
Snow Depth 0 in , 1 in , 0 in
UV 4 out of 12
Pollen 5.30 out of 12
Ozone Good
PM2.5 Hazardous
Flu Activity Not available.
METAR KTVL 231653Z AUTO 19007KT 10SM CLR 21/M01 A3022 RMK AO2 SLP178 T02061011

More Conditions Fewer Conditions

10-Day Weather Forecast

Almanac

Astronomy

Sep. 23, 2014 Rise Set
Actual Time 6:49 AM PDT 6:55 PM PDT
Civil Twilight 6:22 AM PDT 7:22 PM PDT
Nautical Twilight 5:51 AM PDT 7:52 PM PDT
Astronomical Twilight 5:19 AM PDT 8:24 PM PDT
Moon 6:18 AM PDT 6:37 PM PDT
Length of Visible Light 12h 59m
Length of Day
12h 06m
Tomorrow will be 2m 30s shorter.
Waning Crescent, 0% of the Moon is Illuminated
Today
Waning Crescent
Sep 24
New
Oct 1
First Quarter
Oct 8
Full
Oct 15
Last Quarter

Today's Extremes

State Highs State Lows

Community

WunderPhotos

Upload Photos

1,755,755 photos uploaded!

WunderBlogs® & News

Nearby

Air Quality

  Air Quality AQ Index Pollutant
Yesterday Very Unhealthy
PM2.5
Yesterday Moderate
OZONE
Current Hazardous
PM2.5
Current Good
OZONE
Tuesday Unhealthy
OZONE
Wednesday Unhealthy
OZONE
Thursday Good
OZONE
Friday Good
OZONE
Saturday Good
OZONE

Snow Depth

Station Depth Elevation
Ebbetts Pass 0 in 8700 ft
Monitor Pass 1 in 8350 ft
Independence Camp 0 in 7000 ft
Forestdale Creek 0 in 8029 ft
Summit Meadow 1 in 9122 ft

Earthquake Activity

City Distance Mag. Time & Date
No recent earthquake activity has been reported nearby.
Minimum magnitude displayed is 2.5.

Coastal Water Temperatures

Place Temperature
No Stations Reporting

Nearby Weather Stations